sensor_id;sensor_type;location;lat;lon;timestamp;P1;durP1;ratioP1;P2;durP2;ratioP2
38783;SDS011;24531;45.502;12.238;2023-06-10T00:01:24;3.40;;;3.10;;
38783;SDS011;24531;45.502;12.238;2023-06-10T00:03:50;5.30;;;3.70;;
38783;SDS011;24531;45.502;12.238;2023-06-10T00:06:16;6.75;;;3.58;;
38783;SDS011;24531;45.502;12.238;2023-06-10T00:08:42;4.85;;;4.35;;
38783;SDS011;24531;45.502;12.238;2023-06-10T00:11:08;5.70;;;4.50;;
38783;SDS011;24531;45.502;12.238;2023-06-10T00:13:34;5.80;;;4.70;;
38783;SDS011;24531;45.502;12.238;2023-06-10T00:16:00;6.43;;;4.78;;
38783;SDS011;24531;45.502;12.238;2023-06-10T00:18:26;6.88;;;4.88;;
38783;SDS011;24531;45.502;12.238;2023-06-10T00:20:52;5.43;;;4.60;;
38783;SDS011;24531;45.502;12.238;2023-06-10T00:23:20;5.97;;;4.53;;
38783;SDS011;24531;45.502;12.238;2023-06-10T00:25:46;6.22;;;5.10;;
38783;SDS011;24531;45.502;12.238;2023-06-10T00:28:11;5.43;;;4.88;;
38783;SDS011;24531;45.502;12.238;2023-06-10T00:30:38;8.85;;;5.45;;
38783;SDS011;24531;45.502;12.238;2023-06-10T00:33:04;6.45;;;5.15;;
38783;SDS011;24531;45.502;12.238;2023-06-10T00:35:29;5.50;;;4.57;;
38783;SDS011;24531;45.502;12.238;2023-06-10T00:37:55;6.35;;;4.85;;
38783;SDS011;24531;45.502;12.238;2023-06-10T00:40:21;8.52;;;4.65;;
38783;SDS011;24531;45.502;12.238;2023-06-10T00:42:46;6.60;;;5.10;;
38783;SDS011;24531;45.502;12.238;2023-06-10T00:45:12;4.70;;;4.13;;
38783;SDS011;24531;45.502;12.238;2023-06-10T00:47:40;5.85;;;4.75;;
38783;SDS011;24531;45.502;12.238;2023-06-10T00:50:07;7.20;;;4.53;;
38783;SDS011;24531;45.502;12.238;2023-06-10T00:52:33;6.40;;;5.25;;
38783;SDS011;24531;45.502;12.238;2023-06-10T00:55:00;6.95;;;5.05;;
38783;SDS011;24531;45.502;12.238;2023-06-10T00:57:25;5.30;;;4.28;;
38783;SDS011;24531;45.502;12.238;2023-06-10T00:59:51;8.02;;;4.90;;
38783;SDS011;24531;45.502;12.238;2023-06-10T01:02:17;6.90;;;4.80;;
38783;SDS011;24531;45.502;12.238;2023-06-10T01:04:43;6.10;;;4.72;;
38783;SDS011;24531;45.502;12.238;2023-06-10T01:10:20;5.15;;;4.45;;
38783;SDS011;24531;45.502;12.238;2023-06-10T01:12:58;5.60;;;4.53;;
38783;SDS011;24531;45.502;12.238;2023-06-10T01:15:27;5.72;;;4.82;;
38783;SDS011;24531;45.502;12.238;2023-06-10T01:17:57;6.53;;;4.28;;
38783;SDS011;24531;45.502;12.238;2023-06-10T01:20:25;5.97;;;4.03;;
38783;SDS011;24531;45.502;12.238;2023-06-10T01:22:53;5.93;;;4.50;;
38783;SDS011;24531;45.502;12.238;2023-06-10T01:25:20;5.28;;;4.55;;
38783;SDS011;24531;45.502;12.238;2023-06-10T01:27:53;6.38;;;4.05;;
38783;SDS011;24531;45.502;12.238;2023-06-10T01:30:27;6.47;;;4.28;;
38783;SDS011;24531;45.502;12.238;2023-06-10T01:32:55;5.38;;;4.22;;
38783;SDS011;24531;45.502;12.238;2023-06-10T01:35:24;5.47;;;4.47;;
38783;SDS011;24531;45.502;12.238;2023-06-10T01:37:51;5.82;;;4.30;;
38783;SDS011;24531;45.502;12.238;2023-06-10T01:40:19;5.13;;;4.07;;
38783;SDS011;24531;45.502;12.238;2023-06-10T01:42:45;8.00;;;4.32;;
38783;SDS011;24531;45.502;12.238;2023-06-10T01:45:11;5.30;;;3.65;;
38783;SDS011;24531;45.502;12.238;2023-06-10T01:47:37;4.88;;;4.22;;
38783;SDS011;24531;45.502;12.238;2023-06-10T01:50:02;6.15;;;4.45;;
38783;SDS011;24531;45.502;12.238;2023-06-10T01:52:28;5.45;;;4.07;;
38783;SDS011;24531;45.502;12.238;2023-06-10T01:54:54;5.40;;;4.18;;
38783;SDS011;24531;45.502;12.238;2023-06-10T01:57:20;5.53;;;4.43;;
38783;SDS011;24531;45.502;12.238;2023-06-10T01:59:45;5.88;;;4.10;;
38783;SDS011;24531;45.502;12.238;2023-06-10T02:02:11;5.18;;;4.32;;
38783;SDS011;24531;45.502;12.238;2023-06-10T02:04:37;6.07;;;4.60;;
38783;SDS011;24531;45.502;12.238;2023-06-10T02:07:03;7.88;;;4.90;;
38783;SDS011;24531;45.502;12.238;2023-06-10T02:09:29;7.10;;;4.82;;
38783;SDS011;24531;45.502;12.238;2023-06-10T02:11:55;5.65;;;4.65;;
38783;SDS011;24531;45.502;12.238;2023-06-10T02:14:21;8.93;;;5.57;;
38783;SDS011;24531;45.502;12.238;2023-06-10T02:16:46;8.30;;;6.00;;
38783;SDS011;24531;45.502;12.238;2023-06-10T02:19:13;8.15;;;5.93;;
38783;SDS011;24531;45.502;12.238;2023-06-10T02:21:38;8.18;;;5.50;;
38783;SDS011;24531;45.502;12.238;2023-06-10T02:24:04;9.15;;;5.82;;
38783;SDS011;24531;45.502;12.238;2023-06-10T02:26:30;5.93;;;4.65;;
38783;SDS011;24531;45.502;12.238;2023-06-10T02:28:56;7.32;;;5.22;;
38783;SDS011;24531;45.502;12.238;2023-06-10T02:31:22;7.57;;;4.90;;
38783;SDS011;24531;45.502;12.238;2023-06-10T02:33:49;8.70;;;5.28;;
38783;SDS011;24531;45.502;12.238;2023-06-10T02:36:14;7.63;;;5.47;;
38783;SDS011;24531;45.502;12.238;2023-06-10T02:38:40;7.10;;;5.63;;
38783;SDS011;24531;45.502;12.238;2023-06-10T02:41:06;6.10;;;4.82;;
38783;SDS011;24531;45.502;12.238;2023-06-10T02:43:32;8.30;;;5.30;;
38783;SDS011;24531;45.502;12.238;2023-06-10T02:45:57;6.72;;;5.03;;
38783;SDS011;24531;45.502;12.238;2023-06-10T02:48:23;8.20;;;5.28;;
38783;SDS011;24531;45.502;12.238;2023-06-10T02:50:49;5.80;;;4.82;;
38783;SDS011;24531;45.502;12.238;2023-06-10T02:53:15;6.45;;;5.28;;
38783;SDS011;24531;45.502;12.238;2023-06-10T02:55:41;7.32;;;5.38;;
38783;SDS011;24531;45.502;12.238;2023-06-10T02:58:08;8.63;;;6.53;;
38783;SDS011;24531;45.502;12.238;2023-06-10T03:00:34;10.13;;;6.82;;
38783;SDS011;24531;45.502;12.238;2023-06-10T03:03:00;9.07;;;6.68;;
38783;SDS011;24531;45.502;12.238;2023-06-10T03:05:28;13.00;;;8.23;;
38783;SDS011;24531;45.502;12.238;2023-06-10T03:07:54;9.07;;;6.78;;
38783;SDS011;24531;45.502;12.238;2023-06-10T03:10:20;8.60;;;6.95;;
38783;SDS011;24531;45.502;12.238;2023-06-10T03:12:46;10.75;;;7.95;;
38783;SDS011;24531;45.502;12.238;2023-06-10T03:15:11;10.00;;;7.43;;
38783;SDS011;24531;45.502;12.238;2023-06-10T03:17:37;9.68;;;6.93;;
38783;SDS011;24531;45.502;12.238;2023-06-10T03:20:04;9.70;;;6.68;;
38783;SDS011;24531;45.502;12.238;2023-06-10T03:22:33;10.90;;;6.88;;
38783;SDS011;24531;45.502;12.238;2023-06-10T03:24:58;9.35;;;7.15;;
38783;SDS011;24531;45.502;12.238;2023-06-10T03:27:25;9.57;;;7.18;;
38783;SDS011;24531;45.502;12.238;2023-06-10T03:29:50;9.55;;;6.82;;
38783;SDS011;24531;45.502;12.238;2023-06-10T03:32:16;11.75;;;6.65;;
38783;SDS011;24531;45.502;12.238;2023-06-10T03:34:42;10.35;;;7.30;;
38783;SDS011;24531;45.502;12.238;2023-06-10T03:37:10;10.50;;;6.47;;
38783;SDS011;24531;45.502;12.238;2023-06-10T03:39:35;11.18;;;6.75;;
38783;SDS011;24531;45.502;12.238;2023-06-10T03:42:01;8.35;;;6.35;;
38783;SDS011;24531;45.502;12.238;2023-06-10T03:44:26;11.25;;;6.60;;
38783;SDS011;24531;45.502;12.238;2023-06-10T03:46:53;10.70;;;7.85;;
38783;SDS011;24531;45.502;12.238;2023-06-10T03:49:22;10.77;;;7.43;;
38783;SDS011;24531;45.502;12.238;2023-06-10T03:51:50;11.00;;;7.35;;
38783;SDS011;24531;45.502;12.238;2023-06-10T03:54:16;11.30;;;7.55;;
38783;SDS011;24531;45.502;12.238;2023-06-10T03:56:41;10.07;;;6.50;;
38783;SDS011;24531;45.502;12.238;2023-06-10T03:59:07;10.52;;;7.07;;
38783;SDS011;24531;45.502;12.238;2023-06-10T04:01:33;10.13;;;7.10;;
38783;SDS011;24531;45.502;12.238;2023-06-10T04:04:00;9.00;;;7.13;;
38783;SDS011;24531;45.502;12.238;2023-06-10T04:06:26;12.25;;;7.40;;
38783;SDS011;24531;45.502;12.238;2023-06-10T04:08:54;9.35;;;7.22;;
38783;SDS011;24531;45.502;12.238;2023-06-10T04:11:21;14.13;;;7.70;;
38783;SDS011;24531;45.502;12.238;2023-06-10T04:13:46;10.35;;;7.35;;
38783;SDS011;24531;45.502;12.238;2023-06-10T04:16:13;9.93;;;8.20;;
38783;SDS011;24531;45.502;12.238;2023-06-10T04:18:40;11.15;;;7.90;;
38783;SDS011;24531;45.502;12.238;2023-06-10T04:21:06;10.38;;;7.88;;
38783;SDS011;24531;45.502;12.238;2023-06-10T04:23:33;11.93;;;7.68;;
38783;SDS011;24531;45.502;12.238;2023-06-10T04:26:00;9.65;;;7.47;;
38783;SDS011;24531;45.502;12.238;2023-06-10T04:28:25;11.88;;;7.28;;
38783;SDS011;24531;45.502;12.238;2023-06-10T04:30:51;11.13;;;8.25;;
38783;SDS011;24531;45.502;12.238;2023-06-10T04:33:18;9.20;;;6.68;;
38783;SDS011;24531;45.502;12.238;2023-06-10T04:35:43;11.63;;;7.57;;
38783;SDS011;24531;45.502;12.238;2023-06-10T04:38:09;11.57;;;8.05;;
38783;SDS011;24531;45.502;12.238;2023-06-10T04:40:35;11.20;;;7.30;;
38783;SDS011;24531;45.502;12.238;2023-06-10T04:43:00;8.75;;;6.68;;
38783;SDS011;24531;45.502;12.238;2023-06-10T04:45:26;8.77;;;7.50;;
38783;SDS011;24531;45.502;12.238;2023-06-10T04:47:52;11.68;;;8.15;;
38783;SDS011;24531;45.502;12.238;2023-06-10T04:50:17;11.77;;;8.38;;
38783;SDS011;24531;45.502;12.238;2023-06-10T04:52:43;11.93;;;8.52;;
38783;SDS011;24531;45.502;12.238;2023-06-10T04:55:09;12.40;;;8.82;;
38783;SDS011;24531;45.502;12.238;2023-06-10T04:57:35;12.05;;;8.80;;
38783;SDS011;24531;45.502;12.238;2023-06-10T05:00:01;9.88;;;8.55;;
38783;SDS011;24531;45.502;12.238;2023-06-10T05:02:30;13.43;;;9.63;;
38783;SDS011;24531;45.502;12.238;2023-06-10T05:04:56;10.60;;;8.95;;
38783;SDS011;24531;45.502;12.238;2023-06-10T05:07:23;10.43;;;9.30;;
38783;SDS011;24531;45.502;12.238;2023-06-10T05:09:48;11.38;;;8.63;;
38783;SDS011;24531;45.502;12.238;2023-06-10T05:12:14;10.88;;;8.30;;
38783;SDS011;24531;45.502;12.238;2023-06-10T05:14:40;11.80;;;8.88;;
38783;SDS011;24531;45.502;12.238;2023-06-10T05:17:06;10.73;;;8.68;;
38783;SDS011;24531;45.502;12.238;2023-06-10T05:19:31;10.75;;;8.68;;
38783;SDS011;24531;45.502;12.238;2023-06-10T05:21:57;11.98;;;9.43;;
38783;SDS011;24531;45.502;12.238;2023-06-10T05:24:23;11.60;;;8.65;;
38783;SDS011;24531;45.502;12.238;2023-06-10T05:26:49;10.10;;;8.73;;
38783;SDS011;24531;45.502;12.238;2023-06-10T05:29:15;11.73;;;8.80;;
38783;SDS011;24531;45.502;12.238;2023-06-10T05:31:41;10.52;;;8.18;;
38783;SDS011;24531;45.502;12.238;2023-06-10T05:34:06;10.07;;;8.52;;
38783;SDS011;24531;45.502;12.238;2023-06-10T05:36:32;11.23;;;8.18;;
38783;SDS011;24531;45.502;12.238;2023-06-10T05:38:57;9.27;;;7.78;;
38783;SDS011;24531;45.502;12.238;2023-06-10T05:41:23;11.13;;;8.05;;
38783;SDS011;24531;45.502;12.238;2023-06-10T05:43:50;8.90;;;7.05;;
38783;SDS011;24531;45.502;12.238;2023-06-10T05:46:16;9.77;;;7.22;;
38783;SDS011;24531;45.502;12.238;2023-06-10T05:48:41;10.35;;;6.57;;
38783;SDS011;24531;45.502;12.238;2023-06-10T05:51:07;10.73;;;8.35;;
38783;SDS011;24531;45.502;12.238;2023-06-10T05:53:32;13.30;;;8.07;;
38783;SDS011;24531;45.502;12.238;2023-06-10T05:55:58;13.77;;;9.20;;
38783;SDS011;24531;45.502;12.238;2023-06-10T05:58:24;12.60;;;8.65;;
38783;SDS011;24531;45.502;12.238;2023-06-10T06:00:49;14.45;;;9.32;;
38783;SDS011;24531;45.502;12.238;2023-06-10T06:03:15;11.63;;;8.52;;
38783;SDS011;24531;45.502;12.238;2023-06-10T06:05:42;11.55;;;8.85;;
38783;SDS011;24531;45.502;12.238;2023-06-10T06:08:08;9.88;;;8.63;;
38783;SDS011;24531;45.502;12.238;2023-06-10T06:10:34;11.18;;;8.55;;
38783;SDS011;24531;45.502;12.238;2023-06-10T06:13:00;13.07;;;8.93;;
38783;SDS011;24531;45.502;12.238;2023-06-10T06:15:26;14.05;;;9.88;;
38783;SDS011;24531;45.502;12.238;2023-06-10T06:17:52;10.68;;;8.73;;
38783;SDS011;24531;45.502;12.238;2023-06-10T06:20:18;12.18;;;8.48;;
38783;SDS011;24531;45.502;12.238;2023-06-10T06:22:44;10.18;;;8.25;;
38783;SDS011;24531;45.502;12.238;2023-06-10T06:25:10;13.05;;;9.15;;
38783;SDS011;24531;45.502;12.238;2023-06-10T06:27:35;11.73;;;8.43;;
38783;SDS011;24531;45.502;12.238;2023-06-10T06:30:01;11.88;;;8.30;;
38783;SDS011;24531;45.502;12.238;2023-06-10T06:32:26;11.75;;;7.75;;
38783;SDS011;24531;45.502;12.238;2023-06-10T06:34:52;11.13;;;8.48;;
38783;SDS011;24531;45.502;12.238;2023-06-10T06:37:22;11.80;;;8.20;;
38783;SDS011;24531;45.502;12.238;2023-06-10T06:39:52;12.45;;;7.18;;
38783;SDS011;24531;45.502;12.238;2023-06-10T06:42:18;9.75;;;7.35;;
38783;SDS011;24531;45.502;12.238;2023-06-10T06:44:45;14.70;;;8.48;;
38783;SDS011;24531;45.502;12.238;2023-06-10T06:47:10;13.20;;;8.75;;
38783;SDS011;24531;45.502;12.238;2023-06-10T06:49:36;11.80;;;8.82;;
38783;SDS011;24531;45.502;12.238;2023-06-10T06:52:02;10.90;;;8.15;;
38783;SDS011;24531;45.502;12.238;2023-06-10T06:54:28;12.98;;;8.68;;
38783;SDS011;24531;45.502;12.238;2023-06-10T06:56:54;9.32;;;7.68;;
38783;SDS011;24531;45.502;12.238;2023-06-10T06:59:19;10.93;;;6.63;;
38783;SDS011;24531;45.502;12.238;2023-06-10T07:01:46;12.13;;;7.70;;
38783;SDS011;24531;45.502;12.238;2023-06-10T07:04:11;8.82;;;6.82;;
38783;SDS011;24531;45.502;12.238;2023-06-10T07:06:39;12.20;;;7.82;;
38783;SDS011;24531;45.502;12.238;2023-06-10T07:09:04;10.95;;;8.65;;
38783;SDS011;24531;45.502;12.238;2023-06-10T07:11:31;11.45;;;8.52;;
38783;SDS011;24531;45.502;12.238;2023-06-10T07:13:57;13.68;;;8.90;;
38783;SDS011;24531;45.502;12.238;2023-06-10T07:16:22;11.45;;;9.32;;
38783;SDS011;24531;45.502;12.238;2023-06-10T07:18:48;11.75;;;9.43;;
38783;SDS011;24531;45.502;12.238;2023-06-10T07:21:13;17.15;;;9.98;;
38783;SDS011;24531;45.502;12.238;2023-06-10T07:23:42;11.40;;;9.75;;
38783;SDS011;24531;45.502;12.238;2023-06-10T07:26:09;15.18;;;10.25;;
38783;SDS011;24531;45.502;12.238;2023-06-10T07:28:36;14.05;;;9.77;;
38783;SDS011;24531;45.502;12.238;2023-06-10T07:31:02;11.93;;;9.57;;
38783;SDS011;24531;45.502;12.238;2023-06-10T07:33:28;13.15;;;8.80;;
38783;SDS011;24531;45.502;12.238;2023-06-10T07:35:54;9.13;;;8.05;;
38783;SDS011;24531;45.502;12.238;2023-06-10T07:38:20;13.40;;;9.02;;
38783;SDS011;24531;45.502;12.238;2023-06-10T07:40:46;11.23;;;9.98;;
38783;SDS011;24531;45.502;12.238;2023-06-10T07:43:12;13.82;;;8.75;;
38783;SDS011;24531;45.502;12.238;2023-06-10T07:45:39;23.35;;;8.45;;
38783;SDS011;24531;45.502;12.238;2023-06-10T07:48:06;27.70;;;9.68;;
38783;SDS011;24531;45.502;12.238;2023-06-10T07:50:32;12.88;;;8.70;;
38783;SDS011;24531;45.502;12.238;2023-06-10T07:52:57;80.47;;;12.23;;
38783;SDS011;24531;45.502;12.238;2023-06-10T07:55:23;103.88;;;13.80;;
38783;SDS011;24531;45.502;12.238;2023-06-10T07:57:51;13.25;;;9.45;;
38783;SDS011;24531;45.502;12.238;2023-06-10T08:00:17;15.45;;;8.38;;
38783;SDS011;24531;45.502;12.238;2023-06-10T08:02:43;69.25;;;12.70;;
38783;SDS011;24531;45.502;12.238;2023-06-10T08:05:08;17.35;;;10.00;;
38783;SDS011;24531;45.502;12.238;2023-06-10T08:07:34;18.05;;;9.45;;
38783;SDS011;24531;45.502;12.238;2023-06-10T08:10:00;12.27;;;8.63;;
38783;SDS011;24531;45.502;12.238;2023-06-10T08:12:28;10.55;;;8.80;;
38783;SDS011;24531;45.502;12.238;2023-06-10T08:14:53;14.05;;;8.98;;
38783;SDS011;24531;45.502;12.238;2023-06-10T08:17:20;10.88;;;8.82;;
38783;SDS011;24531;45.502;12.238;2023-06-10T08:19:45;12.73;;;8.38;;
38783;SDS011;24531;45.502;12.238;2023-06-10T08:22:12;157.25;;;16.95;;
38783;SDS011;24531;45.502;12.238;2023-06-10T08:24:39;14.90;;;9.43;;
38783;SDS011;24531;45.502;12.238;2023-06-10T08:27:05;13.73;;;10.05;;
38783;SDS011;24531;45.502;12.238;2023-06-10T08:29:31;10.98;;;8.90;;
38783;SDS011;24531;45.502;12.238;2023-06-10T08:31:57;10.48;;;8.85;;
38783;SDS011;24531;45.502;12.238;2023-06-10T08:34:25;11.95;;;9.32;;
38783;SDS011;24531;45.502;12.238;2023-06-10T08:36:52;11.98;;;8.98;;
38783;SDS011;24531;45.502;12.238;2023-06-10T08:39:18;11.70;;;8.80;;
38783;SDS011;24531;45.502;12.238;2023-06-10T08:41:56;8.70;;;7.43;;
38783;SDS011;24531;45.502;12.238;2023-06-10T08:44:28;8.27;;;6.75;;
38783;SDS011;24531;45.502;12.238;2023-06-10T08:46:59;6.25;;;5.47;;
38783;SDS011;24531;45.502;12.238;2023-06-10T08:49:26;5.88;;;4.60;;
38783;SDS011;24531;45.502;12.238;2023-06-10T08:51:55;7.55;;;6.00;;
38783;SDS011;24531;45.502;12.238;2023-06-10T08:54:25;8.90;;;6.78;;
38783;SDS011;24531;45.502;12.238;2023-06-10T08:56:53;6.82;;;6.13;;
38783;SDS011;24531;45.502;12.238;2023-06-10T08:59:22;7.72;;;5.82;;
38783;SDS011;24531;45.502;12.238;2023-06-10T09:01:49;5.80;;;4.93;;
38783;SDS011;24531;45.502;12.238;2023-06-10T09:04:15;9.50;;;6.57;;
38783;SDS011;24531;45.502;12.238;2023-06-10T09:06:42;6.45;;;5.15;;
38783;SDS011;24531;45.502;12.238;2023-06-10T09:09:09;7.30;;;5.72;;
38783;SDS011;24531;45.502;12.238;2023-06-10T09:11:37;7.13;;;5.28;;
38783;SDS011;24531;45.502;12.238;2023-06-10T09:14:03;6.38;;;5.70;;
38783;SDS011;24531;45.502;12.238;2023-06-10T09:16:29;10.48;;;6.30;;
38783;SDS011;24531;45.502;12.238;2023-06-10T09:18:55;9.55;;;6.45;;
38783;SDS011;24531;45.502;12.238;2023-06-10T09:21:24;8.30;;;5.70;;
38783;SDS011;24531;45.502;12.238;2023-06-10T09:23:50;9.55;;;6.50;;
38783;SDS011;24531;45.502;12.238;2023-06-10T09:26:16;11.18;;;7.35;;
38783;SDS011;24531;45.502;12.238;2023-06-10T09:28:44;12.55;;;7.60;;
38783;SDS011;24531;45.502;12.238;2023-06-10T09:31:12;7.70;;;5.95;;
38783;SDS011;24531;45.502;12.238;2023-06-10T09:33:39;6.68;;;5.60;;
38783;SDS011;24531;45.502;12.238;2023-06-10T09:36:05;6.50;;;5.63;;
38783;SDS011;24531;45.502;12.238;2023-06-10T09:38:31;9.55;;;6.85;;
38783;SDS011;24531;45.502;12.238;2023-06-10T09:40:58;9.38;;;7.68;;
38783;SDS011;24531;45.502;12.238;2023-06-10T09:43:38;11.80;;;8.30;;
38783;SDS011;24531;45.502;12.238;2023-06-10T09:46:04;10.07;;;8.27;;
38783;SDS011;24531;45.502;12.238;2023-06-10T09:48:29;12.00;;;8.63;;
38783;SDS011;24531;45.502;12.238;2023-06-10T09:50:59;11.18;;;7.75;;
38783;SDS011;24531;45.502;12.238;2023-06-10T09:53:25;10.27;;;8.32;;
38783;SDS011;24531;45.502;12.238;2023-06-10T09:55:51;9.20;;;7.63;;
38783;SDS011;24531;45.502;12.238;2023-06-10T09:58:17;12.90;;;9.00;;
38783;SDS011;24531;45.502;12.238;2023-06-10T10:00:43;11.63;;;8.00;;
38783;SDS011;24531;45.502;12.238;2023-06-10T10:03:09;13.45;;;7.88;;
38783;SDS011;24531;45.502;12.238;2023-06-10T10:05:46;13.10;;;9.85;;
38783;SDS011;24531;45.502;12.238;2023-06-10T10:08:12;13.10;;;9.48;;
38783;SDS011;24531;45.502;12.238;2023-06-10T10:10:38;13.07;;;9.70;;
38783;SDS011;24531;45.502;12.238;2023-06-10T10:13:03;17.52;;;10.60;;
38783;SDS011;24531;45.502;12.238;2023-06-10T10:15:30;17.17;;;12.27;;
38783;SDS011;24531;45.502;12.238;2023-06-10T10:18:05;18.58;;;13.00;;
38783;SDS011;24531;45.502;12.238;2023-06-10T10:20:34;17.45;;;12.02;;
38783;SDS011;24531;45.502;12.238;2023-06-10T10:23:06;20.95;;;13.10;;
38783;SDS011;24531;45.502;12.238;2023-06-10T10:25:37;23.52;;;13.18;;
38783;SDS011;24531;45.502;12.238;2023-06-10T10:28:09;15.90;;;12.25;;
38783;SDS011;24531;45.502;12.238;2023-06-10T10:30:41;17.38;;;13.55;;
38783;SDS011;24531;45.502;12.238;2023-06-10T10:33:12;24.27;;;13.68;;
38783;SDS011;24531;45.502;12.238;2023-06-10T10:35:41;20.35;;;15.18;;
38783;SDS011;24531;45.502;12.238;2023-06-10T10:38:08;16.92;;;13.70;;
38783;SDS011;24531;45.502;12.238;2023-06-10T10:40:34;21.40;;;15.35;;
38783;SDS011;24531;45.502;12.238;2023-06-10T10:45:36;18.92;;;14.07;;
38783;SDS011;24531;45.502;12.238;2023-06-10T10:48:05;22.65;;;16.80;;
38783;SDS011;24531;45.502;12.238;2023-06-10T10:50:35;23.45;;;17.85;;
38783;SDS011;24531;45.502;12.238;2023-06-10T10:53:04;21.92;;;16.90;;
38783;SDS011;24531;45.502;12.238;2023-06-10T10:55:30;22.45;;;16.65;;
38783;SDS011;24531;45.502;12.238;2023-06-10T10:58:02;21.33;;;15.40;;
38783;SDS011;24531;45.502;12.238;2023-06-10T11:00:30;20.95;;;16.27;;
38783;SDS011;24531;45.502;12.238;2023-06-10T11:08:01;29.85;;;19.45;;
38783;SDS011;24531;45.502;12.238;2023-06-10T11:10:30;30.30;;;20.65;;
38783;SDS011;24531;45.502;12.238;2023-06-10T11:13:13;27.52;;;19.45;;
38783;SDS011;24531;45.502;12.238;2023-06-10T11:32:36;25.63;;;19.13;;
38783;SDS011;24531;45.502;12.238;2023-06-10T11:35:04;29.15;;;19.70;;
38783;SDS011;24531;45.502;12.238;2023-06-10T11:37:32;25.48;;;19.13;;
38783;SDS011;24531;45.502;12.238;2023-06-10T11:39:57;31.38;;;20.95;;
38783;SDS011;24531;45.502;12.238;2023-06-10T11:44:59;28.08;;;19.80;;
38783;SDS011;24531;45.502;12.238;2023-06-10T11:47:27;28.67;;;20.25;;
38783;SDS011;24531;45.502;12.238;2023-06-10T11:52:22;28.00;;;18.58;;
38783;SDS011;24531;45.502;12.238;2023-06-10T11:54:55;23.08;;;17.52;;
38783;SDS011;24531;45.502;12.238;2023-06-10T11:57:21;24.13;;;18.17;;
38783;SDS011;24531;45.502;12.238;2023-06-10T11:59:46;35.80;;;20.75;;
38783;SDS011;24531;45.502;12.238;2023-06-10T12:02:16;26.77;;;19.65;;
38783;SDS011;24531;45.502;12.238;2023-06-10T12:04:42;21.17;;;16.50;;
38783;SDS011;24531;45.502;12.238;2023-06-10T12:07:08;21.27;;;16.33;;
38783;SDS011;24531;45.502;12.238;2023-06-10T12:09:33;22.98;;;16.58;;
38783;SDS011;24531;45.502;12.238;2023-06-10T12:14:50;20.55;;;15.15;;
38783;SDS011;24531;45.502;12.238;2023-06-10T12:21:03;24.60;;;17.40;;
38783;SDS011;24531;45.502;12.238;2023-06-10T12:31:07;19.50;;;15.35;;
38783;SDS011;24531;45.502;12.238;2023-06-10T12:34:06;20.42;;;15.77;;
38783;SDS011;24531;45.502;12.238;2023-06-10T12:55:29;18.75;;;15.48;;
38783;SDS011;24531;45.502;12.238;2023-06-10T12:57:55;20.10;;;14.07;;
38783;SDS011;24531;45.502;12.238;2023-06-10T13:00:22;21.48;;;15.38;;
38783;SDS011;24531;45.502;12.238;2023-06-10T13:02:50;19.60;;;13.93;;
38783;SDS011;24531;45.502;12.238;2023-06-10T13:05:17;17.60;;;13.75;;
38783;SDS011;24531;45.502;12.238;2023-06-10T13:07:43;16.90;;;13.65;;
38783;SDS011;24531;45.502;12.238;2023-06-10T13:10:09;20.00;;;14.35;;
38783;SDS011;24531;45.502;12.238;2023-06-10T13:12:35;18.52;;;13.52;;
38783;SDS011;24531;45.502;12.238;2023-06-10T13:15:02;19.95;;;13.88;;
38783;SDS011;24531;45.502;12.238;2023-06-10T13:17:29;18.42;;;13.68;;
38783;SDS011;24531;45.502;12.238;2023-06-10T13:19:54;19.88;;;13.73;;
38783;SDS011;24531;45.502;12.238;2023-06-10T13:22:20;18.02;;;13.45;;
38783;SDS011;24531;45.502;12.238;2023-06-10T13:24:46;18.45;;;13.65;;
38783;SDS011;24531;45.502;12.238;2023-06-10T13:27:14;16.90;;;11.27;;
38783;SDS011;24531;45.502;12.238;2023-06-10T13:29:40;16.40;;;11.55;;
38783;SDS011;24531;45.502;12.238;2023-06-10T13:32:06;14.00;;;9.65;;
38783;SDS011;24531;45.502;12.238;2023-06-10T13:34:32;14.55;;;10.40;;
38783;SDS011;24531;45.502;12.238;2023-06-10T13:36:58;18.80;;;11.18;;
38783;SDS011;24531;45.502;12.238;2023-06-10T13:39:24;13.32;;;10.20;;
38783;SDS011;24531;45.502;12.238;2023-06-10T13:41:49;14.20;;;9.02;;
38783;SDS011;24531;45.502;12.238;2023-06-10T13:44:17;13.20;;;9.60;;
38783;SDS011;24531;45.502;12.238;2023-06-10T13:46:42;10.85;;;8.43;;
38783;SDS011;24531;45.502;12.238;2023-06-10T13:49:08;13.13;;;9.15;;
38783;SDS011;24531;45.502;12.238;2023-06-10T13:51:34;17.60;;;7.60;;
38783;SDS011;24531;45.502;12.238;2023-06-10T13:54:00;13.00;;;8.77;;
38783;SDS011;24531;45.502;12.238;2023-06-10T13:56:25;11.07;;;6.18;;
38783;SDS011;24531;45.502;12.238;2023-06-10T13:58:51;8.13;;;6.07;;
38783;SDS011;24531;45.502;12.238;2023-06-10T14:01:16;7.82;;;5.40;;
38783;SDS011;24531;45.502;12.238;2023-06-10T14:03:42;6.85;;;4.90;;
38783;SDS011;24531;45.502;12.238;2023-06-10T14:06:08;6.03;;;5.38;;
38783;SDS011;24531;45.502;12.238;2023-06-10T14:08:34;11.18;;;5.82;;
38783;SDS011;24531;45.502;12.238;2023-06-10T14:11:00;5.43;;;4.47;;
38783;SDS011;24531;45.502;12.238;2023-06-10T14:13:25;7.43;;;6.05;;
38783;SDS011;24531;45.502;12.238;2023-06-10T14:15:51;12.60;;;6.63;;
38783;SDS011;24531;45.502;12.238;2023-06-10T14:18:17;10.07;;;6.07;;
38783;SDS011;24531;45.502;12.238;2023-06-10T14:20:43;8.98;;;5.60;;
38783;SDS011;24531;45.502;12.238;2023-06-10T14:23:12;13.10;;;6.47;;
38783;SDS011;24531;45.502;12.238;2023-06-10T14:25:37;14.07;;;6.43;;
38783;SDS011;24531;45.502;12.238;2023-06-10T14:28:03;7.72;;;5.90;;
38783;SDS011;24531;45.502;12.238;2023-06-10T14:30:29;10.90;;;6.70;;
38783;SDS011;24531;45.502;12.238;2023-06-10T14:32:54;8.60;;;6.07;;
38783;SDS011;24531;45.502;12.238;2023-06-10T14:35:20;12.70;;;6.50;;
38783;SDS011;24531;45.502;12.238;2023-06-10T14:37:46;9.95;;;6.60;;
38783;SDS011;24531;45.502;12.238;2023-06-10T14:40:12;10.93;;;7.13;;
38783;SDS011;24531;45.502;12.238;2023-06-10T14:42:37;12.68;;;7.90;;
38783;SDS011;24531;45.502;12.238;2023-06-10T14:45:03;10.00;;;7.82;;
38783;SDS011;24531;45.502;12.238;2023-06-10T14:47:30;9.07;;;7.22;;
38783;SDS011;24531;45.502;12.238;2023-06-10T14:49:56;7.70;;;5.55;;
38783;SDS011;24531;45.502;12.238;2023-06-10T14:52:21;8.20;;;5.53;;
38783;SDS011;24531;45.502;12.238;2023-06-10T14:54:47;9.70;;;5.63;;
38783;SDS011;24531;45.502;12.238;2023-06-10T14:59:51;7.03;;;4.50;;
38783;SDS011;24531;45.502;12.238;2023-06-10T15:14:03;7.28;;;3.58;;
38783;SDS011;24531;45.502;12.238;2023-06-10T15:16:29;6.90;;;2.88;;
38783;SDS011;24531;45.502;12.238;2023-06-10T15:19:03;8.20;;;2.50;;
38783;SDS011;24531;45.502;12.238;2023-06-10T15:21:31;6.07;;;3.80;;
38783;SDS011;24531;45.502;12.238;2023-06-10T15:24:16;6.95;;;2.60;;
38783;SDS011;24531;45.502;12.238;2023-06-10T15:26:45;5.88;;;2.10;;
38783;SDS011;24531;45.502;12.238;2023-06-10T15:37:23;6.43;;;2.13;;
38783;SDS011;24531;45.502;12.238;2023-06-10T15:39:49;4.78;;;2.08;;
38783;SDS011;24531;45.502;12.238;2023-06-10T15:44:59;3.50;;;1.77;;
38783;SDS011;24531;45.502;12.238;2023-06-10T15:50:27;6.90;;;2.30;;
38783;SDS011;24531;45.502;12.238;2023-06-10T15:55:24;2.97;;;1.90;;
38783;SDS011;24531;45.502;12.238;2023-06-10T15:57:56;6.22;;;1.58;;